createdAt,value
2022-12-31T00:00:19.535Z,0.95
2022-12-31T00:04:26.315Z,1.38
2022-12-31T00:08:29.526Z,1.15
2022-12-31T00:12:34.262Z,3.00
2022-12-31T00:16:42.114Z,0.57
2022-12-31T00:20:43.696Z,1.25
2022-12-31T00:24:52.291Z,1.27
2022-12-31T00:28:59.333Z,1.40
2022-12-31T00:33:06.058Z,0.80
2022-12-31T00:37:10.678Z,1.75
2022-12-31T00:41:13.472Z,2.33
2022-12-31T00:45:18.492Z,0.55
2022-12-31T00:49:27.883Z,1.90
2022-12-31T00:53:37.634Z,1.85
2022-12-31T00:57:43.959Z,1.95
2022-12-31T01:01:55.316Z,1.63
2022-12-31T01:06:01.610Z,1.13
2022-12-31T01:10:07.569Z,1.38
2022-12-31T01:14:32.515Z,1.27
2022-12-31T01:18:34.117Z,1.40
2022-12-31T01:22:39.655Z,2.88
2022-12-31T01:26:42.645Z,0.68
2022-12-31T01:30:49.341Z,1.30
2022-12-31T01:34:51.871Z,1.67
2022-12-31T01:38:57.624Z,1.27
2022-12-31T01:42:59.224Z,3.22
2022-12-31T01:47:08.954Z,3.17
2022-12-31T01:51:14.012Z,2.15
2022-12-31T01:55:28.682Z,1.30
2022-12-31T01:59:39.042Z,2.72
2022-12-31T02:03:45.047Z,1.33
2022-12-31T02:07:50.858Z,4.07
2022-12-31T02:11:53.485Z,1.70
2022-12-31T02:16:21.647Z,3.67
2022-12-31T02:20:39.284Z,0.98
2022-12-31T02:29:11.006Z,0.77
2022-12-31T02:33:28.370Z,1.65
2022-12-31T02:37:33.577Z,1.33
2022-12-31T02:41:50.304Z,4.45
2022-12-31T02:46:08.230Z,0.87
2022-12-31T02:50:35.308Z,1.23
2022-12-31T02:54:58.486Z,1.52
2022-12-31T02:59:25.693Z,0.95
2022-12-31T03:03:27.933Z,1.10
2022-12-31T03:07:35.776Z,0.95
2022-12-31T03:11:59.443Z,1.85
2022-12-31T03:16:03.055Z,2.92
2022-12-31T03:20:23.624Z,3.55
2022-12-31T03:24:49.029Z,0.85
2022-12-31T03:28:50.559Z,3.03
2022-12-31T03:32:56.104Z,0.80
2022-12-31T03:36:57.696Z,1.02
2022-12-31T03:40:59.549Z,1.90
2022-12-31T03:45:01.135Z,1.98
2022-12-31T03:49:05.768Z,4.18
2022-12-31T03:53:07.349Z,1.83
2022-12-31T03:57:11.182Z,1.63
2022-12-31T04:01:16.391Z,1.48
2022-12-31T04:05:27.363Z,2.40
2022-12-31T04:09:30.740Z,2.03
2022-12-31T04:13:35.155Z,2.13
2022-12-31T04:17:43.927Z,2.17
2022-12-31T04:21:54.598Z,1.52
2022-12-31T04:25:56.139Z,1.10
2022-12-31T04:30:01.764Z,0.70
2022-12-31T04:34:17.573Z,1.20
2022-12-31T04:38:20.660Z,1.10
2022-12-31T04:42:35.757Z,4.53
2022-12-31T04:46:39.476Z,2.22
2022-12-31T04:50:52.283Z,1.38
2022-12-31T04:54:57.739Z,1.17
2022-12-31T04:59:03.901Z,0.57
2022-12-31T05:03:16.304Z,3.05
2022-12-31T05:07:20.983Z,2.97
2022-12-31T05:11:26.288Z,1.25
2022-12-31T05:15:33.291Z,1.60
2022-12-31T05:19:39.281Z,0.87
2022-12-31T05:23:41.108Z,1.02
2022-12-31T05:27:42.898Z,1.27
2022-12-31T05:31:44.322Z,1.73
2022-12-31T05:35:46.362Z,2.38
2022-12-31T05:39:49.752Z,0.68
2022-12-31T05:43:53.410Z,3.33
2022-12-31T05:47:59.919Z,1.27
2022-12-31T05:52:01.664Z,2.97
2022-12-31T06:04:58.710Z,0.80
2022-12-31T06:09:05.712Z,0.50
2022-12-31T06:13:10.789Z,1.20
2022-12-31T06:17:14.876Z,0.52
2022-12-31T06:21:21.780Z,1.20
2022-12-31T06:25:25.682Z,0.77
2022-12-31T06:29:27.717Z,1.83
2022-12-31T06:33:30.176Z,2.28
2022-12-31T06:37:37.410Z,1.40
2022-12-31T06:41:44.678Z,0.80
2022-12-31T06:45:46.631Z,1.10
2022-12-31T06:49:48.206Z,0.73
2022-12-31T06:53:53.396Z,1.17
2022-12-31T06:57:58.668Z,0.60
2022-12-31T07:02:21.984Z,1.05
2022-12-31T07:06:27.578Z,0.90
2022-12-31T07:10:44.865Z,0.63
2022-12-31T07:14:46.845Z,1.63
2022-12-31T07:18:58.150Z,0.70
2022-12-31T07:23:02.588Z,1.15
2022-12-31T07:27:38.631Z,1.27
2022-12-31T07:31:46.275Z,2.17
2022-12-31T07:45:37.796Z,1.15
2022-12-31T07:49:52.999Z,1.83
2022-12-31T07:53:58.741Z,1.85
2022-12-31T07:58:27.048Z,2.67
2022-12-31T08:03:07.082Z,1.58
2022-12-31T08:07:25.880Z,0.80
2022-12-31T08:11:34.896Z,0.70
2022-12-31T08:15:45.932Z,2.78
2022-12-31T08:19:56.925Z,1.65
2022-12-31T08:24:49.552Z,0.93
2022-12-31T08:29:30.284Z,0.75
2022-12-31T08:38:40.117Z,1.77
2022-12-31T08:43:01.025Z,1.17
2022-12-31T08:47:11.384Z,2.20
2022-12-31T08:51:17.511Z,1.15
2022-12-31T08:55:21.618Z,2.45
2022-12-31T08:59:50.841Z,1.45
2022-12-31T09:04:25.916Z,2.15
2022-12-31T09:08:43.098Z,1.83
2022-12-31T09:12:55.727Z,1.90
2022-12-31T09:17:31.899Z,0.93
2022-12-31T09:22:00.280Z,3.28
2022-12-31T09:26:23.162Z,1.40
2022-12-31T09:30:26.889Z,1.05
2022-12-31T09:34:46.356Z,1.08
2022-12-31T09:38:54.481Z,1.38
2022-12-31T09:43:18.412Z,0.70
2022-12-31T09:48:04.756Z,1.40
2022-12-31T09:52:37.440Z,2.87
2022-12-31T09:56:44.593Z,1.17
2022-12-31T10:00:56.344Z,1.63
2022-12-31T10:05:18.173Z,1.13
2022-12-31T10:09:57.049Z,1.80
2022-12-31T10:14:09.194Z,0.80
2022-12-31T10:18:41.310Z,5.15
2022-12-31T10:22:58.250Z,1.02
2022-12-31T10:27:36.630Z,1.80
2022-12-31T10:32:04.627Z,0.93
2022-12-31T10:42:20.340Z,1.15
2022-12-31T10:57:08.675Z,1.20
2022-12-31T11:15:06.803Z,1.70
2022-12-31T11:25:03.514Z,3.33
2022-12-31T11:29:36.189Z,0.88
2022-12-31T11:33:50.331Z,0.95
2022-12-31T11:38:01.669Z,0.47
2022-12-31T11:42:16.210Z,0.75
2022-12-31T11:47:06.969Z,0.98
2022-12-31T11:51:34.147Z,1.85
2022-12-31T11:55:49.009Z,1.90
2022-12-31T11:59:56.784Z,0.80
2022-12-31T12:04:01.771Z,1.13
2022-12-31T12:08:03.778Z,0.60
2022-12-31T12:12:06.283Z,0.82
2022-12-31T12:16:08.393Z,1.58
2022-12-31T12:20:20.173Z,1.73
2022-12-31T12:24:29.960Z,0.68
2022-12-31T12:28:45.392Z,0.50
2022-12-31T12:32:58.098Z,5.00
2022-12-31T12:37:00.221Z,0.90
2022-12-31T12:41:04.640Z,1.08
2022-12-31T12:45:26.719Z,1.88
2022-12-31T12:49:31.717Z,1.35
2022-12-31T12:53:40.678Z,2.08
2022-12-31T12:57:46.950Z,1.42
2022-12-31T13:02:02.475Z,0.93
2022-12-31T13:06:42.057Z,1.58
2022-12-31T13:10:59.141Z,0.82
2022-12-31T13:15:13.704Z,0.50
2022-12-31T13:19:36.217Z,0.80
2022-12-31T13:23:51.739Z,0.95
2022-12-31T13:27:57.560Z,5.13
2022-12-31T13:32:02.262Z,2.25
2022-12-31T13:36:05.988Z,1.27
2022-12-31T13:40:18.286Z,0.65
2022-12-31T13:44:35.116Z,2.50
2022-12-31T13:48:47.059Z,1.95
2022-12-31T13:53:04.696Z,0.80
2022-12-31T13:57:15.863Z,0.85
2022-12-31T14:01:34.088Z,1.15
2022-12-31T14:05:47.254Z,1.08
2022-12-31T14:10:04.399Z,2.17
2022-12-31T14:14:42.484Z,2.80
2022-12-31T14:19:25.991Z,3.47
2022-12-31T14:24:06.358Z,2.55
2022-12-31T14:28:31.197Z,2.72
2022-12-31T14:32:54.976Z,10.85
2022-12-31T14:37:43.771Z,4.53
2022-12-31T14:42:05.743Z,5.95
2022-12-31T14:46:53.151Z,2.55
2022-12-31T14:51:27.565Z,3.13
2022-12-31T15:11:12.167Z,1.23
2022-12-31T15:15:36.141Z,8.07
2022-12-31T15:24:55.026Z,2.38
2022-12-31T15:29:09.036Z,2.33
2022-12-31T15:33:39.828Z,2.30
2022-12-31T15:38:17.760Z,1.10
2022-12-31T15:42:39.278Z,1.40
2022-12-31T15:46:45.759Z,3.65
2022-12-31T15:56:00.135Z,4.50
2022-12-31T16:00:07.793Z,3.53
2022-12-31T16:08:30.366Z,1.60
2022-12-31T16:12:37.083Z,3.92
2022-12-31T16:21:47.684Z,4.90
2022-12-31T16:25:52.781Z,2.97
2022-12-31T16:30:00.609Z,2.78
2022-12-31T16:34:15.133Z,18.38
2022-12-31T16:38:20.683Z,15.27
2022-12-31T16:42:29.713Z,15.88
2022-12-31T16:46:31.948Z,8.48
2022-12-31T16:50:35.661Z,9.48
2022-12-31T16:54:39.012Z,10.77
2022-12-31T16:58:42.736Z,8.68
2022-12-31T17:02:49.867Z,7.03
2022-12-31T17:06:51.582Z,8.77
2022-12-31T17:10:53.641Z,9.95
2022-12-31T17:15:01.937Z,9.95
2022-12-31T17:19:04.119Z,13.55
2022-12-31T17:23:07.975Z,11.73
2022-12-31T17:27:09.820Z,13.38
2022-12-31T17:31:34.904Z,12.07
2022-12-31T17:35:46.446Z,7.18
2022-12-31T17:39:50.512Z,10.27
2022-12-31T17:43:54.972Z,8.77
2022-12-31T17:48:02.554Z,8.77
2022-12-31T17:52:04.379Z,8.80
2022-12-31T17:56:07.654Z,6.82
2022-12-31T18:00:17.049Z,5.40
2022-12-31T18:04:20.878Z,5.22
2022-12-31T18:08:23.079Z,4.55
2022-12-31T18:12:24.994Z,4.75
2022-12-31T18:16:26.761Z,5.28
2022-12-31T18:20:28.536Z,4.55
2022-12-31T18:24:44.122Z,3.63
2022-12-31T18:28:46.967Z,3.28
2022-12-31T18:32:50.755Z,3.38
2022-12-31T18:36:52.380Z,7.13
2022-12-31T18:40:56.178Z,3.85
2022-12-31T18:45:01.414Z,4.63
2022-12-31T18:49:03.409Z,5.07
2022-12-31T18:53:05.728Z,4.90
2022-12-31T18:57:07.281Z,4.07
2022-12-31T19:01:37.629Z,5.95
2022-12-31T19:05:39.131Z,3.92
2022-12-31T19:09:45.607Z,3.85
2022-12-31T19:13:47.993Z,6.53
2022-12-31T19:17:49.369Z,4.75
2022-12-31T19:21:50.759Z,6.70
2022-12-31T19:25:52.225Z,6.15
2022-12-31T19:29:53.940Z,7.03
2022-12-31T19:33:55.288Z,10.73
2022-12-31T19:37:56.790Z,12.50
2022-12-31T19:41:59.480Z,4.40
2022-12-31T19:46:03.356Z,5.32
2022-12-31T19:50:05.369Z,9.70
2022-12-31T19:54:07.621Z,7.55
2022-12-31T19:58:15.366Z,11.00
2022-12-31T20:06:19.237Z,14.57
2022-12-31T20:10:20.669Z,21.17
2022-12-31T20:14:22.196Z,16.38
2022-12-31T20:18:23.717Z,16.67
2022-12-31T20:22:25.172Z,31.83
2022-12-31T20:26:26.671Z,28.52
2022-12-31T20:30:28.240Z,50.83
2022-12-31T20:34:29.635Z,24.02
2022-12-31T20:38:31.387Z,17.95
2022-12-31T20:42:32.972Z,14.98
2022-12-31T20:46:39.356Z,13.18
2022-12-31T20:50:41.151Z,20.90
2022-12-31T20:54:42.560Z,29.65
2022-12-31T20:58:45.881Z,25.38
2022-12-31T21:02:56.345Z,26.90
2022-12-31T21:07:02.070Z,21.75
2022-12-31T21:11:24.444Z,17.40
2022-12-31T21:15:26.294Z,22.30
2022-12-31T21:19:27.779Z,16.17
2022-12-31T21:23:29.306Z,17.75
2022-12-31T21:27:30.977Z,21.20
2022-12-31T21:31:32.438Z,30.17
2022-12-31T21:35:46.714Z,33.60
2022-12-31T21:39:49.950Z,43.85
2022-12-31T21:43:51.395Z,36.03
2022-12-31T21:48:14.781Z,16.13
2022-12-31T21:52:31.532Z,13.50
2022-12-31T21:56:32.946Z,13.77
2022-12-31T22:00:53.055Z,12.07
2022-12-31T22:05:02.827Z,11.30
2022-12-31T22:09:05.760Z,11.98
2022-12-31T22:13:07.195Z,16.77
2022-12-31T22:17:10.045Z,8.65
2022-12-31T22:21:18.967Z,24.02
2022-12-31T22:25:21.539Z,45.78
2022-12-31T22:29:23.606Z,47.25
2022-12-31T22:33:25.007Z,37.45
2022-12-31T22:41:47.910Z,47.45
2022-12-31T22:45:49.269Z,36.85
2022-12-31T22:49:50.663Z,142.45
2022-12-31T22:53:52.177Z,95.20
2022-12-31T22:57:53.654Z,68.07
2022-12-31T23:01:55.135Z,71.90
2022-12-31T23:05:56.580Z,472.77
2022-12-31T23:10:16.563Z,274.15
2022-12-31T23:14:36.680Z,190.43
2022-12-31T23:19:03.479Z,297.30
2022-12-31T23:23:09.452Z,128.32
2022-12-31T23:27:11.498Z,99.65
2022-12-31T23:31:12.901Z,125.40
2022-12-31T23:35:14.438Z,66.35
2022-12-31T23:39:15.880Z,77.47
2022-12-31T23:43:21.932Z,69.78
2022-12-31T23:47:23.418Z,54.30
2022-12-31T23:51:24.846Z,64.05
2022-12-31T23:55:26.522Z,117.28
2022-12-31T23:59:30.491Z,104.30
